createdAt,value
2018-05-14T00:00:39.398Z,0
2018-05-14T00:01:39.425Z,0
2018-05-14T00:02:38.658Z,0
2018-05-14T00:03:38.992Z,0
2018-05-14T00:04:39.540Z,0
2018-05-14T00:05:39.524Z,0
2018-05-14T00:06:39.328Z,0
2018-05-14T00:07:39.321Z,0
2018-05-14T00:08:39.628Z,0
2018-05-14T00:09:39.202Z,0
2018-05-14T00:10:39.398Z,0
2018-05-14T00:11:38.890Z,0
2018-05-14T00:12:39.433Z,0
2018-05-14T00:13:39.453Z,0
2018-05-14T00:14:39.510Z,0
2018-05-14T00:15:39.514Z,0
2018-05-14T00:16:39.265Z,0
2018-05-14T00:17:39.839Z,0
2018-05-14T00:18:39.574Z,0
2018-05-14T00:19:39.625Z,0
2018-05-14T00:20:39.602Z,0
2018-05-14T00:21:39.384Z,0
2018-05-14T00:22:39.409Z,0
2018-05-14T00:23:39.669Z,0
2018-05-14T00:24:39.449Z,0
2018-05-14T00:25:39.739Z,0
2018-05-14T00:26:39.242Z,0
2018-05-14T00:27:40.071Z,0
2018-05-14T00:28:39.799Z,0
2018-05-14T00:29:39.833Z,0
2018-05-14T00:30:39.877Z,0
2018-05-14T00:31:39.881Z,0
2018-05-14T00:32:39.632Z,0
2018-05-14T00:33:39.669Z,0
2018-05-14T00:34:40.249Z,0
2018-05-14T00:35:39.442Z,0
2018-05-14T00:36:40.370Z,0
2018-05-14T00:37:39.773Z,0
2018-05-14T00:38:40.041Z,0
2018-05-14T00:39:40.343Z,0
2018-05-14T00:40:40.169Z,0
2018-05-14T00:41:40.479Z,0
2018-05-14T00:42:39.589Z,0
2018-05-14T00:43:40.458Z,0
2018-05-14T00:44:40.447Z,0
2018-05-14T00:45:40.273Z,0
2018-05-14T00:46:39.955Z,0
2018-05-14T00:47:40.520Z,0
2018-05-14T00:48:39.728Z,0
2018-05-14T00:49:40.353Z,0
2018-05-14T00:50:40.615Z,0
2018-05-14T00:51:40.614Z,0
2018-05-14T00:52:40.624Z,0
2018-05-14T00:53:40.142Z,0
2018-05-14T00:54:40.418Z,0
2018-05-14T00:55:40.445Z,0
2018-05-14T00:56:40.748Z,0
2018-05-14T00:57:40.461Z,0
2018-05-14T00:58:40.519Z,0
2018-05-14T00:59:40.284Z,0
2018-05-14T01:00:40.537Z,0
2018-05-14T01:01:40.559Z,0
2018-05-14T01:02:40.664Z,0
2018-05-14T01:03:40.341Z,0
2018-05-14T01:04:40.657Z,0
2018-05-14T01:05:40.674Z,0
2018-05-14T01:06:40.902Z,0
2018-05-14T01:07:40.984Z,0
2018-05-14T01:08:40.748Z,0
2018-05-14T01:09:40.490Z,0
2018-05-14T01:10:41.109Z,0
2018-05-14T01:11:40.799Z,0
2018-05-14T01:12:40.561Z,0
2018-05-14T01:13:40.837Z,0
2018-05-14T01:14:40.868Z,0
2018-05-14T01:15:41.167Z,0
2018-05-14T01:16:41.185Z,0
2018-05-14T01:17:41.307Z,0
2018-05-14T01:18:40.982Z,0
2018-05-14T01:19:41.258Z,0
2018-05-14T01:20:41.267Z,0
2018-05-14T01:21:41.319Z,0
2018-05-14T01:22:41.329Z,0
2018-05-14T01:23:40.830Z,0
2018-05-14T01:24:40.848Z,0
2018-05-14T01:25:40.836Z,0
2018-05-14T01:26:41.406Z,0
2018-05-14T01:27:41.473Z,0
2018-05-14T01:28:41.214Z,0
2018-05-14T01:29:41.469Z,0
2018-05-14T01:30:41.262Z,0
2018-05-14T01:31:41.265Z,0
2018-05-14T01:32:41.278Z,0
2018-05-14T01:33:41.303Z,0
2018-05-14T01:34:41.583Z,0
2018-05-14T01:35:41.114Z,0
2018-05-14T01:36:41.368Z,0
2018-05-14T01:37:41.467Z,0
2018-05-14T01:38:41.177Z,0
2018-05-14T01:39:41.737Z,0
2018-05-14T01:40:41.453Z,0
2018-05-14T01:41:41.481Z,0
2018-05-14T01:42:41.541Z,0
2018-05-14T01:43:41.553Z,0
2018-05-14T01:44:41.291Z,0
2018-05-14T01:45:41.863Z,0
2018-05-14T01:46:41.888Z,0
2018-05-14T01:47:41.924Z,0
2018-05-14T01:48:41.631Z,0
2018-05-14T01:49:41.667Z,0
2018-05-14T01:50:41.972Z,0
2018-05-14T01:51:41.717Z,0
2018-05-14T01:52:41.722Z,0
2018-05-14T01:53:41.496Z,0
2018-05-14T01:54:41.510Z,0
2018-05-14T01:55:42.068Z,0
2018-05-14T01:56:42.111Z,0
2018-05-14T01:57:41.859Z,0
2018-05-14T01:58:41.888Z,0
2018-05-14T01:59:42.199Z,0
2018-05-14T02:00:41.913Z,0
2018-05-14T02:01:41.664Z,0
2018-05-14T02:02:41.442Z,0
2018-05-14T02:03:42.290Z,0
2018-05-14T02:04:42.266Z,0
2018-05-14T02:05:42.041Z,0
2018-05-14T02:06:42.058Z,0
2018-05-14T02:07:41.809Z,0
2018-05-14T02:08:42.092Z,0
2018-05-14T02:09:42.132Z,0
2018-05-14T02:10:42.144Z,0
2018-05-14T02:11:42.190Z,0
2018-05-14T02:12:42.196Z,0
2018-05-14T02:13:42.489Z,0
2018-05-14T02:14:41.679Z,0
2018-05-14T02:15:41.993Z,0
2018-05-14T02:16:42.533Z,0
2018-05-14T02:17:42.552Z,0
2018-05-14T02:18:42.331Z,0
2018-05-14T02:19:42.343Z,0
2018-05-14T02:20:42.621Z,0
2018-05-14T02:21:42.653Z,0
2018-05-14T02:22:42.713Z,0
2018-05-14T02:23:42.670Z,0
2018-05-14T02:24:42.164Z,0
2018-05-14T02:25:42.733Z,0
2018-05-14T02:26:42.507Z,0
2018-05-14T02:27:42.802Z,0
2018-05-14T02:28:42.530Z,0
2018-05-14T02:29:42.569Z,0
2018-05-14T02:30:42.048Z,0
2018-05-14T02:31:42.604Z,0
2018-05-14T02:32:42.353Z,0
2018-05-14T02:33:42.935Z,0
2018-05-14T02:34:42.403Z,0
2018-05-14T02:35:42.974Z,0
2018-05-14T02:36:42.746Z,0
2018-05-14T02:37:42.481Z,0
2018-05-14T02:38:42.776Z,0
2018-05-14T02:39:43.071Z,0
2018-05-14T02:40:43.050Z,0
2018-05-14T02:41:43.116Z,0
2018-05-14T02:42:43.133Z,0
2018-05-14T02:43:42.909Z,0
2018-05-14T02:44:43.167Z,0
2018-05-14T02:45:42.924Z,0
2018-05-14T02:46:43.294Z,0
2018-05-14T02:47:42.689Z,0
2018-05-14T02:48:43.248Z,0
2018-05-14T02:49:42.990Z,0
2018-05-14T02:50:43.124Z,0
2018-05-14T02:51:43.161Z,0
2018-05-14T02:52:43.185Z,0
2018-05-14T02:53:43.108Z,0
2018-05-14T02:54:43.121Z,0
2018-05-14T02:55:43.130Z,0
2018-05-14T02:56:43.446Z,0
2018-05-14T02:57:43.558Z,0
2018-05-14T02:58:43.495Z,0
2018-05-14T02:59:43.236Z,0
2018-05-14T03:00:43.519Z,0
2018-05-14T03:01:43.271Z,0
2018-05-14T03:02:43.556Z,0
2018-05-14T03:03:43.331Z,0
2018-05-14T03:04:43.612Z,0
2018-05-14T03:05:43.097Z,0
2018-05-14T03:06:43.143Z,0
2018-05-14T03:07:43.699Z,0
2018-05-14T03:08:43.693Z,0
2018-05-14T03:09:43.185Z,0
2018-05-14T03:10:43.894Z,0
2018-05-14T03:11:43.740Z,0
2018-05-14T03:12:43.804Z,0
2018-05-14T03:13:43.538Z,0
2018-05-14T03:14:43.316Z,0
2018-05-14T03:15:43.587Z,0
2018-05-14T03:16:43.610Z,0
2018-05-14T03:17:43.093Z,0
2018-05-14T03:18:43.925Z,0
2018-05-14T03:19:43.946Z,0
2018-05-14T03:20:43.678Z,0
2018-05-14T03:21:43.700Z,0
2018-05-14T03:22:44.001Z,0
2018-05-14T03:23:44.041Z,0
2018-05-14T03:24:44.037Z,0
2018-05-14T03:25:43.545Z,0
2018-05-14T03:26:44.107Z,0
2018-05-14T03:27:43.829Z,0
2018-05-14T03:28:43.612Z,0
2018-05-14T03:29:44.158Z,0
2018-05-14T03:30:43.949Z,0
2018-05-14T03:31:43.398Z,0
2018-05-14T03:32:43.685Z,0
2018-05-14T03:33:44.218Z,0
2018-05-14T03:34:44.272Z,0
2018-05-14T03:35:44.298Z,0
2018-05-14T03:36:44.036Z,0
2018-05-14T03:37:44.055Z,0
2018-05-14T03:38:44.081Z,0
2018-05-14T03:39:43.843Z,0
2018-05-14T03:40:44.394Z,0
2018-05-14T03:41:44.654Z,0
2018-05-14T03:42:44.168Z,0
2018-05-14T03:43:44.471Z,0
2018-05-14T03:44:44.502Z,0
2018-05-14T03:45:44.526Z,0
2018-05-14T03:46:44.255Z,0
2018-05-14T03:47:44.574Z,0
2018-05-14T03:48:44.311Z,0
2018-05-14T03:49:44.636Z,0
2018-05-14T03:50:44.636Z,0
2018-05-14T03:51:44.647Z,0
2018-05-14T03:52:44.394Z,0
2018-05-14T03:53:44.404Z,0
2018-05-14T03:54:44.458Z,0
2018-05-14T03:55:44.753Z,0
2018-05-14T03:56:44.747Z,0
2018-05-14T03:57:44.801Z,0
2018-05-14T03:58:44.534Z,0
2018-05-14T03:59:44.301Z,0
2018-05-14T04:00:44.562Z,0
2018-05-14T04:01:44.904Z,0
2018-05-14T04:02:44.905Z,0
2018-05-14T04:03:44.379Z,0
2018-05-14T04:04:44.959Z,0
2018-05-14T04:05:44.425Z,0
2018-05-14T04:06:44.988Z,0
2018-05-14T04:07:44.186Z,0
2018-05-14T04:08:44.989Z,0
2018-05-14T04:09:44.756Z,0
2018-05-14T04:10:44.795Z,0
2018-05-14T04:11:44.776Z,0
2018-05-14T04:12:44.903Z,0
2018-05-14T04:13:44.866Z,0
2018-05-14T04:14:44.617Z,0
2018-05-14T04:15:45.221Z,0
2018-05-14T04:16:44.756Z,0
2018-05-14T04:17:44.685Z,0
2018-05-14T04:18:44.991Z,0
2018-05-14T04:19:45.331Z,0
2018-05-14T04:20:45.267Z,0
2018-05-14T04:21:45.299Z,0
2018-05-14T04:22:44.771Z,0
2018-05-14T04:23:45.358Z,0
2018-05-14T04:24:45.388Z,0
2018-05-14T04:25:45.094Z,0
2018-05-14T04:26:45.172Z,0
2018-05-14T04:27:45.428Z,0
2018-05-14T04:28:45.172Z,0
2018-05-14T04:29:45.300Z,0
2018-05-14T04:30:45.208Z,0
2018-05-14T04:31:45.493Z,0
2018-05-14T04:32:45.249Z,0
2018-05-14T04:33:45.291Z,0
2018-05-14T04:34:45.322Z,0
2018-05-14T04:35:45.316Z,0
2018-05-14T04:36:45.088Z,0
2018-05-14T04:37:45.625Z,0
2018-05-14T04:38:45.699Z,0
2018-05-14T04:39:45.411Z,0
2018-05-14T04:40:45.690Z,0
2018-05-14T04:41:45.712Z,0
2018-05-14T04:42:45.216Z,5
2018-05-14T04:43:45.224Z,5
2018-05-14T04:44:45.538Z,5
2018-05-14T04:45:45.561Z,5
2018-05-14T04:46:45.616Z,5
2018-05-14T04:47:45.583Z,5
2018-05-14T04:48:45.350Z,5
2018-05-14T04:49:45.905Z,5
2018-05-14T04:50:45.648Z,5
2018-05-14T04:51:45.951Z,5
2018-05-14T04:52:45.944Z,5
2018-05-14T04:53:45.719Z,5
2018-05-14T04:54:45.726Z,5
2018-05-14T04:55:45.752Z,5
2018-05-14T04:56:45.514Z,5
2018-05-14T04:57:45.553Z,5
2018-05-14T04:58:45.854Z,5
2018-05-14T04:59:46.103Z,5
2018-05-14T05:00:45.923Z,5
2018-05-14T05:01:46.163Z,5
2018-05-14T05:02:45.638Z,5
2018-05-14T05:03:45.925Z,5
2018-05-14T05:04:46.209Z,5
2018-05-14T05:05:46.014Z,5
2018-05-14T05:06:45.996Z,5
2018-05-14T05:07:46.289Z,5
2018-05-14T05:08:45.763Z,5
2018-05-14T05:09:46.059Z,5
2018-05-14T05:10:45.783Z,5
2018-05-14T05:11:45.287Z,5
2018-05-14T05:12:46.134Z,5
2018-05-14T05:13:46.156Z,5
2018-05-14T05:14:46.117Z,5
2018-05-14T05:15:46.212Z,5
2018-05-14T05:16:46.149Z,5
2018-05-14T05:17:46.254Z,5
2018-05-14T05:18:46.511Z,5
2018-05-14T05:19:46.258Z,5
2018-05-14T05:20:45.754Z,5
2018-05-14T05:21:46.337Z,5
2018-05-14T05:22:46.436Z,5
2018-05-14T05:23:46.364Z,5
2018-05-14T05:24:46.632Z,5
2018-05-14T05:25:46.681Z,5
2018-05-14T05:26:46.673Z,5
2018-05-14T05:27:46.439Z,5
2018-05-14T05:28:46.485Z,5
2018-05-14T05:29:46.513Z,5
2018-05-14T05:30:46.520Z,5
2018-05-14T05:31:46.532Z,5
2018-05-14T05:32:47.058Z,5
2018-05-14T05:33:46.839Z,5
2018-05-14T05:34:46.737Z,5
2018-05-14T05:35:46.879Z,5
2018-05-14T05:36:46.650Z,5
2018-05-14T05:37:46.911Z,5
2018-05-14T05:38:46.413Z,5
2018-05-14T05:39:46.954Z,5
2018-05-14T05:40:46.458Z,5
2018-05-14T05:41:47.025Z,5
2018-05-14T05:42:46.801Z,5
2018-05-14T05:43:46.776Z,5
2018-05-14T05:44:46.807Z,5
2018-05-14T05:45:46.542Z,5
2018-05-14T05:46:47.117Z,5
2018-05-14T05:47:46.869Z,5
2018-05-14T05:48:46.899Z,5
2018-05-14T05:49:46.932Z,5
2018-05-14T05:50:47.203Z,5
2018-05-14T05:51:46.952Z,5
2018-05-14T05:52:47.242Z,5
2018-05-14T05:53:46.995Z,5
2018-05-14T05:54:47.009Z,5
2018-05-14T05:55:46.766Z,5
2018-05-14T05:56:47.345Z,5
2018-05-14T05:57:46.887Z,5
2018-05-14T05:58:47.111Z,5
2018-05-14T05:59:46.558Z,5
2018-05-14T06:00:46.875Z,5
2018-05-14T06:01:46.624Z,5
2018-05-14T06:02:47.181Z,5
2018-05-14T06:03:47.463Z,5
2018-05-14T06:04:47.536Z,5
2018-05-14T06:05:47.262Z,5
2018-05-14T06:06:47.328Z,5
2018-05-14T06:07:47.272Z,5
2018-05-14T06:08:46.753Z,5
2018-05-14T06:09:47.354Z,5
2018-05-14T06:10:47.401Z,5
2018-05-14T06:11:47.620Z,5
2018-05-14T06:12:47.852Z,5
2018-05-14T06:13:47.458Z,5
2018-05-14T06:14:47.808Z,5
2018-05-14T06:15:47.468Z,5
2018-05-14T06:16:47.217Z,5
2018-05-14T06:17:47.245Z,5
2018-05-14T06:18:47.533Z,5
2018-05-14T06:19:47.552Z,5
2018-05-14T06:20:47.301Z,5
2018-05-14T06:21:47.353Z,5
2018-05-14T06:22:47.686Z,5
2018-05-14T06:23:48.014Z,5
2018-05-14T06:24:47.690Z,5
2018-05-14T06:25:47.946Z,5
2018-05-14T06:26:47.439Z,5
2018-05-14T06:27:47.774Z,5
2018-05-14T06:28:48.030Z,5
2018-05-14T06:29:47.770Z,5
2018-05-14T06:30:48.071Z,5
2018-05-14T06:31:48.096Z,5
2018-05-14T06:32:47.569Z,5
2018-05-14T06:33:47.839Z,5
2018-05-14T06:34:47.608Z,5
2018-05-14T06:35:47.713Z,5
2018-05-14T06:36:47.384Z,5
2018-05-14T06:37:48.213Z,5
2018-05-14T06:38:47.691Z,5
2018-05-14T06:39:47.726Z,5
2018-05-14T06:40:48.275Z,5
2018-05-14T06:41:48.309Z,5
2018-05-14T06:42:48.333Z,5
2018-05-14T06:43:48.100Z,5
2018-05-14T06:44:47.820Z,5
2018-05-14T06:45:48.391Z,5
2018-05-14T06:46:48.428Z,5
2018-05-14T06:47:48.447Z,5
2018-05-14T06:48:48.168Z,5
2018-05-14T06:49:48.691Z,5
2018-05-14T06:50:48.213Z,5
2018-05-14T06:51:48.237Z,5
2018-05-14T06:52:48.248Z,5
2018-05-14T06:53:48.279Z,5
2018-05-14T06:54:48.130Z,5
2018-05-14T06:55:48.312Z,5
2018-05-14T06:56:48.623Z,5
2018-05-14T06:57:48.373Z,5
2018-05-14T06:58:48.148Z,5
2018-05-14T06:59:48.436Z,5
2018-05-14T07:00:48.204Z,5
2018-05-14T07:01:48.749Z,5
2018-05-14T07:02:48.756Z,5
2018-05-14T07:03:48.512Z,5
2018-05-14T07:04:48.541Z,5
2018-05-14T07:05:48.555Z,5
2018-05-14T07:06:48.654Z,5
2018-05-14T07:07:48.576Z,5
2018-05-14T07:08:48.332Z,5
2018-05-14T07:09:48.648Z,5
2018-05-14T07:10:49.010Z,5
2018-05-14T07:11:48.694Z,5
2018-05-14T07:12:48.703Z,5
2018-05-14T07:13:49.045Z,5
2018-05-14T07:14:48.767Z,5
2018-05-14T07:15:48.778Z,5
2018-05-14T07:16:48.686Z,5
2018-05-14T07:17:48.780Z,5
2018-05-14T07:18:48.856Z,5
2018-05-14T07:19:49.131Z,5
2018-05-14T07:20:48.898Z,5
2018-05-14T07:21:49.152Z,5
2018-05-14T07:22:48.939Z,5
2018-05-14T07:23:48.697Z,5
2018-05-14T07:24:49.137Z,5
2018-05-14T07:25:49.028Z,5
2018-05-14T07:26:49.003Z,5
2018-05-14T07:27:49.046Z,10
2018-05-14T07:28:49.043Z,10
2018-05-14T07:29:49.102Z,10
2018-05-14T07:30:48.552Z,10
2018-05-14T07:31:49.136Z,10
2018-05-14T07:32:49.434Z,10
2018-05-14T07:33:49.421Z,10
2018-05-14T07:34:48.918Z,10
2018-05-14T07:35:49.226Z,10
2018-05-14T07:36:48.711Z,10
2018-05-14T07:37:49.290Z,10
2018-05-14T07:38:49.273Z,10
2018-05-14T07:39:49.802Z,10
2018-05-14T07:40:49.024Z,10
2018-05-14T07:41:49.102Z,10
2018-05-14T07:42:49.271Z,10
2018-05-14T07:43:49.550Z,10
2018-05-14T07:44:49.519Z,10
2018-05-14T07:45:49.746Z,10
2018-05-14T07:46:49.476Z,10
2018-05-14T07:47:49.783Z,10
2018-05-14T07:48:49.497Z,10
2018-05-14T07:49:50.033Z,10
2018-05-14T07:50:49.988Z,10
2018-05-14T07:52:04.199Z,10
2018-05-14T07:52:49.959Z,10
2018-05-14T07:53:49.602Z,10
2018-05-14T07:54:49.398Z,10
2018-05-14T07:55:49.927Z,10
2018-05-14T07:56:49.509Z,10
2018-05-14T07:57:49.980Z,10
2018-05-14T07:58:49.999Z,10
2018-05-14T07:59:49.752Z,10
2018-05-14T08:00:50.065Z,10
2018-05-14T08:01:49.812Z,10
2018-05-14T08:02:49.559Z,10
2018-05-14T08:03:49.598Z,10
2018-05-14T08:04:49.611Z,10
2018-05-14T08:05:50.654Z,10
2018-05-14T08:06:50.207Z,10
2018-05-14T08:07:49.936Z,10
2018-05-14T08:08:49.952Z,10
2018-05-14T08:09:49.980Z,10
2018-05-14T08:10:49.712Z,10
2018-05-14T08:11:50.724Z,10
2018-05-14T08:12:50.346Z,10
2018-05-14T08:13:50.056Z,10
2018-05-14T08:14:50.435Z,10
2018-05-14T08:15:50.147Z,10
2018-05-14T08:16:49.865Z,10
2018-05-14T08:17:49.893Z,10
2018-05-14T08:18:50.213Z,10
2018-05-14T08:19:50.231Z,10
2018-05-14T08:20:50.522Z,15
2018-05-14T08:21:50.241Z,15
2018-05-14T08:22:50.017Z,15
2018-05-14T08:23:50.560Z,15
2018-05-14T08:24:50.303Z,15
2018-05-14T08:25:50.625Z,15
2018-05-14T08:26:49.854Z,15
2018-05-14T08:27:49.863Z,15
2018-05-14T08:28:50.733Z,15
2018-05-14T08:29:50.216Z,15
2018-05-14T08:30:50.479Z,15
2018-05-14T08:31:50.790Z,15
2018-05-14T08:32:50.006Z,15
2018-05-14T08:33:50.808Z,15
2018-05-14T08:34:50.317Z,15
2018-05-14T08:35:50.861Z,15
2018-05-14T08:36:50.372Z,15
2018-05-14T08:37:50.675Z,15
2018-05-14T08:38:50.955Z,15
2018-05-14T08:39:50.967Z,15
2018-05-14T08:40:50.725Z,15
2018-05-14T08:41:51.032Z,15
2018-05-14T08:42:51.081Z,15
2018-05-14T08:43:51.048Z,15
2018-05-14T08:44:50.576Z,15
2018-05-14T08:45:50.868Z,15
2018-05-14T08:46:50.339Z,15
2018-05-14T08:47:51.144Z,15
2018-05-14T08:48:51.201Z,15
2018-05-14T08:49:51.244Z,15
2018-05-14T08:50:50.989Z,15
2018-05-14T08:51:51.083Z,15
2018-05-14T08:52:50.505Z,15
2018-05-14T08:53:50.767Z,15
2018-05-14T08:54:51.149Z,15
2018-05-14T08:55:51.343Z,15
2018-05-14T08:56:51.451Z,15
2018-05-14T08:57:51.330Z,15
2018-05-14T08:58:51.161Z,15
2018-05-14T08:59:51.445Z,15
2018-05-14T09:00:51.796Z,15
2018-05-14T09:01:51.470Z,20
2018-05-14T09:02:51.259Z,20
2018-05-14T09:03:51.012Z,20
2018-05-14T09:04:51.046Z,20
2018-05-14T09:05:51.352Z,20
2018-05-14T09:06:51.607Z,20
2018-05-14T09:07:51.127Z,20
2018-05-14T09:08:51.964Z,20
2018-05-14T09:09:51.180Z,20
2018-05-14T09:10:51.509Z,20
2018-05-14T09:11:51.860Z,20
2018-05-14T09:12:51.790Z,20
2018-05-14T09:13:51.269Z,20
2018-05-14T09:14:51.683Z,20
2018-05-14T09:15:51.881Z,20
2018-05-14T09:16:51.644Z,20
2018-05-14T09:17:51.924Z,20
2018-05-14T09:18:51.978Z,20
2018-05-14T09:19:51.813Z,20
2018-05-14T09:20:51.467Z,20
2018-05-14T09:21:52.028Z,20
2018-05-14T09:22:52.034Z,20
2018-05-14T09:23:52.080Z,20
2018-05-14T09:24:51.575Z,20
2018-05-14T09:25:51.873Z,20
2018-05-14T09:26:51.876Z,20
2018-05-14T09:27:51.913Z,20
2018-05-14T09:28:51.946Z,20
2018-05-14T09:29:52.254Z,20
2018-05-14T09:30:52.268Z,20
2018-05-14T09:31:52.301Z,20
2018-05-14T09:32:52.032Z,20
2018-05-14T09:33:52.048Z,20
2018-05-14T09:34:52.102Z,20
2018-05-14T09:35:52.405Z,20
2018-05-14T09:36:52.160Z,20
2018-05-14T09:37:51.924Z,25
2018-05-14T09:38:52.207Z,25
2018-05-14T09:39:51.945Z,25
2018-05-14T09:40:51.985Z,25
2018-05-14T09:41:52.371Z,25
2018-05-14T09:42:52.312Z,25
2018-05-14T09:43:52.349Z,25
2018-05-14T09:44:52.383Z,25
2018-05-14T09:45:52.125Z,25
2018-05-14T09:46:52.133Z,25
2018-05-14T09:47:52.982Z,25
2018-05-14T09:48:52.490Z,25
2018-05-14T09:51:02.758Z,25
2018-05-14T09:51:12.332Z,25
2018-05-14T09:52:12.342Z,25
2018-05-14T09:53:12.845Z,25
2018-05-14T09:54:12.385Z,25
2018-05-14T09:55:12.717Z,25
2018-05-14T09:56:12.731Z,25
2018-05-14T09:57:12.287Z,25
2018-05-14T09:58:12.299Z,25
2018-05-14T09:59:12.267Z,25
2018-05-14T10:00:12.582Z,25
2018-05-14T10:01:12.603Z,25
2018-05-14T10:02:12.917Z,25
2018-05-14T10:03:12.412Z,25
2018-05-14T10:04:12.178Z,30
2018-05-14T10:05:12.875Z,25
2018-05-14T10:06:13.032Z,30
2018-05-14T10:07:12.768Z,30
2018-05-14T10:08:12.534Z,30
2018-05-14T10:09:12.842Z,30
2018-05-14T10:10:12.587Z,30
2018-05-14T10:11:13.169Z,30
2018-05-14T10:12:12.661Z,30
2018-05-14T10:13:13.263Z,30
2018-05-14T10:14:12.973Z,30
2018-05-14T10:15:13.013Z,30
2018-05-14T10:16:13.026Z,30
2018-05-14T10:17:12.990Z,30
2018-05-14T10:18:13.071Z,30
2018-05-14T10:19:13.374Z,30
2018-05-14T10:20:13.444Z,30
2018-05-14T10:21:13.448Z,30
2018-05-14T10:22:12.922Z,30
2018-05-14T10:23:13.240Z,30
2018-05-14T10:24:13.291Z,30
2018-05-14T10:25:13.294Z,30
2018-05-14T10:26:13.030Z,30
2018-05-14T10:27:13.373Z,30
2018-05-14T10:28:13.104Z,30
2018-05-14T10:29:13.143Z,30
2018-05-14T10:30:13.427Z,30
2018-05-14T10:31:13.722Z,30
2018-05-14T10:32:13.999Z,30
2018-05-14T10:33:13.530Z,30
2018-05-14T10:34:13.834Z,30
2018-05-14T10:35:13.839Z,30
2018-05-14T10:36:13.597Z,30
2018-05-14T10:37:13.635Z,30
2018-05-14T10:38:13.680Z,35
2018-05-14T10:39:13.977Z,35
2018-05-14T10:40:13.729Z,35
2018-05-14T10:41:13.746Z,35
2018-05-14T10:42:13.526Z,35
2018-05-14T10:43:13.809Z,35
2018-05-14T10:44:13.863Z,35
2018-05-14T10:45:13.901Z,35
2018-05-14T10:46:13.898Z,35
2018-05-14T10:47:13.942Z,35
2018-05-14T10:48:14.226Z,35
2018-05-14T10:49:13.997Z,35
2018-05-14T10:50:14.128Z,35
2018-05-14T10:51:14.044Z,35
2018-05-14T10:52:13.830Z,35
2018-05-14T10:53:14.094Z,35
2018-05-14T10:54:13.879Z,35
2018-05-14T10:55:14.184Z,35
2018-05-14T10:56:14.235Z,35
2018-05-14T10:57:14.228Z,35
2018-05-14T10:58:14.276Z,35
2018-05-14T10:59:14.582Z,35
2018-05-14T11:00:14.351Z,35
2018-05-14T11:01:13.826Z,35
2018-05-14T11:02:14.670Z,35
2018-05-14T11:03:14.427Z,35
2018-05-14T11:04:15.039Z,35
2018-05-14T11:05:14.763Z,35
2018-05-14T11:06:14.802Z,35
2018-05-14T11:07:14.809Z,35
2018-05-14T11:08:14.028Z,35
2018-05-14T11:09:14.868Z,40
2018-05-14T11:10:14.615Z,40
2018-05-14T11:11:14.660Z,40
2018-05-14T11:12:14.925Z,40
2018-05-14T11:13:14.739Z,40
2018-05-14T11:14:14.473Z,40
2018-05-14T11:15:14.518Z,40
2018-05-14T11:16:14.543Z,40
2018-05-14T11:17:14.852Z,40
2018-05-14T11:18:14.631Z,40
2018-05-14T11:19:14.919Z,40
2018-05-14T11:20:14.684Z,40
2018-05-14T11:21:15.238Z,40
2018-05-14T11:22:15.282Z,40
2018-05-14T11:23:14.491Z,40
2018-05-14T11:24:15.087Z,40
2018-05-14T11:25:15.362Z,40
2018-05-14T11:26:15.133Z,40
2018-05-14T11:27:15.425Z,40
2018-05-14T11:28:15.462Z,40
2018-05-14T11:29:15.215Z,40
2018-05-14T11:30:15.252Z,40
2018-05-14T11:31:15.527Z,45
2018-05-14T11:32:15.307Z,45
2018-05-14T11:33:15.611Z,45
2018-05-14T11:34:15.654Z,45
2018-05-14T11:35:15.476Z,45
2018-05-14T11:36:15.423Z,45
2018-05-14T11:37:15.469Z,45
2018-05-14T11:38:15.490Z,45
2018-05-14T11:39:15.865Z,45
2018-05-14T11:40:15.553Z,45
2018-05-14T11:41:15.592Z,45
2018-05-14T11:42:15.875Z,45
2018-05-14T11:43:15.402Z,45
2018-05-14T11:44:15.951Z,45
2018-05-14T11:45:15.700Z,45
2018-05-14T11:46:16.106Z,45
2018-05-14T11:47:16.055Z,50
2018-05-14T11:48:15.835Z,50
2018-05-14T11:49:16.104Z,50
2018-05-14T11:50:15.895Z,50
2018-05-14T11:51:16.172Z,50
2018-05-14T11:52:15.639Z,50
2018-05-14T11:53:15.952Z,50
2018-05-14T11:54:16.010Z,50
2018-05-14T11:55:16.302Z,50
2018-05-14T11:56:16.369Z,50
2018-05-14T11:57:15.819Z,50
2018-05-14T11:58:16.153Z,50
2018-05-14T11:59:16.456Z,50
2018-05-14T12:00:15.923Z,50
2018-05-14T12:01:15.947Z,50
2018-05-14T12:02:16.541Z,50
2018-05-14T12:03:16.036Z,55
2018-05-14T12:04:16.370Z,55
2018-05-14T12:05:16.634Z,55
2018-05-14T12:06:16.434Z,55
2018-05-14T12:07:16.423Z,55
2018-05-14T12:08:16.760Z,55
2018-05-14T12:09:16.527Z,55
2018-05-14T12:10:16.679Z,55
2018-05-14T12:11:16.810Z,55
2018-05-14T12:12:17.164Z,55
2018-05-14T12:13:16.856Z,55
2018-05-14T12:14:16.109Z,55
2018-05-14T12:15:16.664Z,55
2018-05-14T12:16:17.575Z,55
2018-05-14T12:17:16.751Z,55
2018-05-14T12:18:16.630Z,55
2018-05-14T12:19:16.550Z,55
2018-05-14T12:20:16.828Z,55
2018-05-14T12:21:16.870Z,55
2018-05-14T12:22:16.869Z,55
2018-05-14T12:23:16.938Z,55
2018-05-14T12:24:16.967Z,55
2018-05-14T12:25:17.296Z,55
2018-05-14T12:26:17.045Z,55
2018-05-14T12:27:17.346Z,55
2018-05-14T12:28:16.826Z,55
2018-05-14T12:29:16.622Z,55
2018-05-14T12:30:16.883Z,55
2018-05-14T12:31:17.178Z,55
2018-05-14T12:32:17.680Z,55
2018-05-14T12:33:17.539Z,55
2018-05-14T12:34:17.064Z,55
2018-05-14T12:35:17.605Z,55
2018-05-14T12:36:17.641Z,55
2018-05-14T12:37:17.410Z,55
2018-05-14T12:38:17.659Z,55
2018-05-14T12:39:16.920Z,55
2018-05-14T12:40:17.752Z,55
2018-05-14T12:41:17.800Z,55
2018-05-14T12:42:17.299Z,55
2018-05-14T12:43:17.847Z,55
2018-05-14T12:44:17.856Z,55
2018-05-14T12:45:17.113Z,55
2018-05-14T12:46:18.254Z,55
2018-05-14T12:47:17.438Z,55
2018-05-14T12:48:18.050Z,55
2018-05-14T12:49:17.265Z,55
2018-05-14T12:50:17.812Z,55
2018-05-14T12:51:18.150Z,55
2018-05-14T12:52:18.163Z,55
2018-05-14T12:53:17.904Z,55
2018-05-14T12:54:17.932Z,55
2018-05-14T12:55:18.258Z,55
2018-05-14T12:56:18.297Z,55
2018-05-14T12:57:18.648Z,55
2018-05-14T12:58:18.414Z,55
2018-05-14T12:59:18.111Z,55
2018-05-14T13:00:18.117Z,55
2018-05-14T13:01:18.490Z,55
2018-05-14T13:02:18.455Z,55
2018-05-14T13:03:18.212Z,55
2018-05-14T13:04:18.551Z,55
2018-05-14T13:05:18.584Z,55
2018-05-14T13:06:18.041Z,55
2018-05-14T13:07:18.396Z,55
2018-05-14T13:08:17.887Z,55
2018-05-14T13:09:18.444Z,55
2018-05-14T13:10:18.743Z,55
2018-05-14T13:11:18.791Z,55
2018-05-14T13:12:18.314Z,55
2018-05-14T13:13:18.597Z,55
2018-05-14T13:14:18.843Z,55
2018-05-14T13:15:18.918Z,55
2018-05-14T13:16:18.969Z,60
2018-05-14T13:17:18.993Z,60
2018-05-14T13:18:19.014Z,60
2018-05-14T13:19:19.435Z,60
2018-05-14T13:20:18.831Z,60
2018-05-14T13:21:19.150Z,60
2018-05-14T13:22:19.163Z,60
2018-05-14T13:23:18.930Z,60
2018-05-14T13:24:19.198Z,60
2018-05-14T13:25:19.243Z,60
2018-05-14T13:26:18.614Z,60
2018-05-14T13:27:19.037Z,60
2018-05-14T13:28:19.086Z,60
2018-05-14T13:29:19.105Z,60
2018-05-14T13:30:18.878Z,60
2018-05-14T13:31:18.623Z,60
2018-05-14T13:32:18.398Z,60
2018-05-14T13:33:19.226Z,60
2018-05-14T13:34:19.560Z,60
2018-05-14T13:35:19.569Z,60
2018-05-14T13:36:18.794Z,60
2018-05-14T13:37:19.664Z,60
2018-05-14T13:38:19.661Z,60
2018-05-14T13:39:19.706Z,60
2018-05-14T13:40:19.473Z,65
2018-05-14T13:41:19.766Z,60
2018-05-14T13:42:19.265Z,65
2018-05-14T13:43:19.599Z,65
2018-05-14T13:44:20.165Z,65
2018-05-14T13:45:19.649Z,60
2018-05-14T13:46:19.944Z,65
2018-05-14T13:47:19.477Z,65
2018-05-14T13:48:20.018Z,65
2018-05-14T13:49:20.030Z,65
2018-05-14T13:50:20.093Z,65
2018-05-14T13:51:19.842Z,65
2018-05-14T13:52:20.144Z,65
2018-05-14T13:53:19.929Z,65
2018-05-14T13:54:20.368Z,65
2018-05-14T13:55:19.993Z,65
2018-05-14T13:56:19.995Z,65
2018-05-14T13:57:20.474Z,65
2018-05-14T13:58:20.076Z,65
2018-05-14T13:59:20.143Z,65
2018-05-14T14:00:20.172Z,65
2018-05-14T14:01:20.167Z,65
2018-05-14T14:02:20.487Z,65
2018-05-14T14:03:20.263Z,65
2018-05-14T14:04:20.551Z,65
2018-05-14T14:05:20.137Z,65
2018-05-14T14:06:20.368Z,65
2018-05-14T14:07:20.669Z,65
2018-05-14T14:08:20.140Z,65
2018-05-14T14:09:20.189Z,65
2018-05-14T14:10:20.736Z,65
2018-05-14T14:11:20.898Z,65
2018-05-14T14:12:20.575Z,65
2018-05-14T14:13:20.337Z,65
2018-05-14T14:14:20.906Z,65
2018-05-14T14:15:20.696Z,65
2018-05-14T14:16:20.503Z,65
2018-05-14T14:17:20.992Z,65
2018-05-14T14:18:20.764Z,65
2018-05-14T14:19:21.073Z,60
2018-05-14T14:20:20.624Z,65
2018-05-14T14:21:21.136Z,65
2018-05-14T14:22:20.634Z,65
2018-05-14T14:23:21.110Z,65
2018-05-14T14:24:22.155Z,60
2018-05-14T14:25:20.463Z,60
2018-05-14T14:26:21.350Z,60
2018-05-14T14:27:21.096Z,60
2018-05-14T14:28:21.384Z,60
2018-05-14T14:29:21.162Z,60
2018-05-14T14:30:21.221Z,60
2018-05-14T14:31:21.191Z,60
2018-05-14T14:32:21.498Z,60